Airports Iceland Keflavik International Airport

Keflavik International Airport (BIKF / KEF)

Facts about Keflavik International Airport

Name Keflavik International Airport
City Keflavik
Country Iceland
ICAO code BIKF
IATA code KEF
Elevation 52.1208 meters (171 feet)

Weather

METAR

Metar data retrieved Saturday, 20 July 2024 at 00:55 UTC (14 minutes ago)

BIKF 200030Z 31003KT 9999 FEW026 SCT060 BKN070 10/09 Q1007

Live traffic

Navigraph Charts (account required)